Time;durP1;ratioP1;P1;durP2;ratioP2;P2;SDS_P1;SDS_P2;PMS_P1;PMS_P2;Temp;Humidity;BMP_temperature;BMP_pressure;BME280_temperature;BME280_humidity;BME280_pressure;Samples;Min_cycle;Max_cycle;Signal;HPM_P1;HPM_P2
2023/03/08 00:02:26;;;;;;;2.40;1.30;;;;;;;1.80;78.63;98560.52;103520;281;38839;-73
2023/03/08 00:05:01;;;;;;;1.90;1.30;;;;;;;1.78;78.48;98564.88;103621;280;38562;-72
2023/03/08 00:07:35;;;;;;;2.90;1.70;;;;;;;1.77;78.62;98560.95;103644;279;39427;-71
2023/03/08 00:10:13;;;;;;;2.70;1.90;;;;;;;1.75;78.70;98561.54;103663;279;38409;-71
2023/03/08 00:12:47;;;;;;;2.80;2.10;;;;;;;1.73;78.74;98557.45;103655;279;38489;-72
2023/03/08 00:15:23;;;;;;;2.90;1.80;;;;;;;1.70;79.00;98547.08;103633;279;38301;-72
2023/03/08 00:17:57;;;;;;;2.20;1.70;;;;;;;1.67;78.95;98547.50;103673;280;38527;-73
2023/03/08 00:20:31;;;;;;;3.10;1.70;;;;;;;1.68;79.03;98550.42;103513;281;38390;-72
2023/03/08 00:23:05;;;;;;;2.60;1.80;;;;;;;1.68;79.09;98553.84;103639;280;39035;-74
2023/03/08 00:25:39;;;;;;;2.10;1.90;;;;;;;1.69;79.18;98554.16;103658;279;38742;-72
2023/03/08 00:28:13;;;;;;;3.30;2.20;;;;;;;1.67;79.29;98546.48;103608;279;39055;-72
2023/03/08 00:30:47;;;;;;;3.70;2.20;;;;;;;1.65;79.33;98552.91;103532;281;39607;-72
2023/03/08 00:33:21;;;;;;;2.80;2.20;;;;;;;1.64;79.34;98555.15;103613;279;38270;-73
2023/03/08 00:36:03;;;;;;;2.60;2.20;;;;;;;1.61;79.28;98553.54;103659;279;38521;-73
2023/03/08 00:38:38;;;;;;;3.10;1.90;;;;;;;1.59;79.42;98554.98;103652;280;38984;-73
2023/03/08 00:41:16;;;;;;;2.60;2.10;;;;;;;1.60;79.55;98555.30;103525;279;38342;-73
2023/03/08 00:43:51;;;;;;;4.50;2.20;;;;;;;1.59;79.62;98550.18;103630;280;39526;-73
2023/03/08 00:46:25;;;;;;;3.70;2.60;;;;;;;1.57;79.77;98548.00;103648;280;38253;-73
2023/03/08 00:48:59;;;;;;;3.30;2.80;;;;;;;1.54;79.79;98549.46;103659;280;39415;-73
2023/03/08 00:51:33;;;;;;;3.90;2.40;;;;;;;1.50;79.95;98549.75;103647;280;39424;-73
2023/03/08 00:54:07;;;;;;;2.80;2.10;;;;;;;1.46;79.79;98549.89;103680;280;39764;-72
2023/03/08 00:56:42;;;;;;;2.70;2.10;;;;;;;1.45;79.94;98552.48;103662;280;39928;-71
2023/03/08 00:59:16;;;;;;;3.40;2.30;;;;;;;1.46;79.99;98550.21;103656;268;38861;-74
2023/03/08 01:01:52;;;;;;;2.50;2.20;;;;;;;1.46;80.10;98544.91;103606;280;38338;-73
2023/03/08 01:04:26;;;;;;;4.20;2.50;;;;;;;1.44;80.09;98542.91;103614;280;38240;-73
2023/03/08 01:07:00;;;;;;;3.20;2.20;;;;;;;1.43;80.15;98540.52;103656;280;38268;-72
2023/03/08 01:09:34;;;;;;;2.50;2.10;;;;;;;1.43;80.22;98538.64;103643;280;38261;-71
2023/03/08 01:12:11;;;;;;;3.10;2.10;;;;;;;1.42;80.29;98540.55;103649;280;38394;-72
2023/03/08 01:14:45;;;;;;;2.50;2.10;;;;;;;1.42;80.27;98541.23;103617;280;39545;-72
2023/03/08 01:17:19;;;;;;;3.40;2.40;;;;;;;1.41;80.37;98535.61;103367;282;38586;-74
2023/03/08 01:19:53;;;;;;;3.60;2.20;;;;;;;1.41;80.32;98533.89;103524;280;38821;-71
2023/03/08 01:22:27;;;;;;;2.90;2.00;;;;;;;1.39;80.33;98530.17;103556;280;38249;-73
2023/03/08 01:25:01;;;;;;;3.00;2.00;;;;;;;1.37;80.41;98526.80;103529;280;40082;-72
2023/03/08 01:27:35;;;;;;;2.70;2.10;;;;;;;1.34;80.33;98523.77;103559;280;40732;-73
2023/03/08 01:30:15;;;;;;;3.00;2.10;;;;;;;1.31;80.28;98519.91;103547;280;38287;-73
2023/03/08 01:32:49;;;;;;;2.00;1.60;;;;;;;1.29;80.37;98515.15;103552;280;38475;-72
2023/03/08 01:35:24;;;;;;;3.10;1.70;;;;;;;1.28;80.41;98513.16;103597;280;38396;-73
2023/03/08 01:37:58;;;;;;;2.80;1.90;;;;;;;1.25;80.40;98516.13;103513;280;38811;-73
2023/03/08 01:40:32;;;;;;;1.90;1.70;;;;;;;1.20;80.45;98518.36;103592;280;38475;-73
2023/03/08 01:43:34;;;;;;;2.10;1.80;;;;;;;1.14;80.35;98521.80;103545;280;39517;-73
2023/03/08 01:46:17;;;;;;;1.60;1.40;;;;;;;1.06;80.30;98528.57;103556;280;38335;-72
2023/03/08 01:48:54;;;;;;;2.60;1.70;;;;;;;1.02;80.65;98525.60;103582;280;39428;-73
2023/03/08 01:51:37;;;;;;;2.00;1.70;;;;;;;0.99;80.57;98529.10;103558;280;38680;-72
2023/03/08 01:54:14;;;;;;;2.40;1.30;;;;;;;0.99;80.65;98533.39;103566;280;38949;-74
2023/03/08 01:56:49;;;;;;;5.00;2.00;;;;;;;1.00;80.78;98530.13;103600;281;38411;-74
2023/03/08 01:59:23;;;;;;;2.50;1.80;;;;;;;0.99;80.83;98533.73;103594;280;38268;-71
2023/03/08 02:01:58;;;;;;;2.00;1.30;;;;;;;0.98;80.81;98534.98;103576;280;39485;-74
2023/03/08 02:04:32;;;;;;;2.30;1.50;;;;;;;0.95;81.04;98538.15;103318;281;39287;-72
2023/03/08 02:07:06;;;;;;;1.90;1.20;;;;;;;0.92;80.85;98540.31;103431;280;38242;-74
2023/03/08 02:09:40;;;;;;;2.00;1.10;;;;;;;0.91;81.01;98541.00;103539;280;39419;-72
2023/03/08 02:12:14;;;;;;;1.80;1.20;;;;;;;0.92;81.18;98540.30;103593;280;39666;-71
2023/03/08 02:14:48;;;;;;;3.40;1.60;;;;;;;0.91;81.36;98539.11;103534;280;38758;-73
2023/03/08 02:17:22;;;;;;;3.10;1.70;;;;;;;0.88;81.13;98541.10;103561;280;38811;-72
2023/03/08 02:19:59;;;;;;;2.60;1.30;;;;;;;0.84;81.14;98541.21;103630;280;38356;-72
2023/03/08 02:22:33;;;;;;;1.60;1.40;;;;;;;0.80;81.23;98536.67;104000;276;38731;-74
2023/03/08 02:25:16;;;;;;;2.70;1.30;;;;;;;0.79;81.30;98543.05;103802;278;38852;-72
2023/03/08 02:27:50;;;;;;;3.00;1.40;;;;;;;0.77;81.08;98547.42;103998;276;38287;-72
2023/03/08 02:30:28;;;;;;;2.30;1.30;;;;;;;0.76;81.24;98554.13;104019;265;39435;-73
2023/03/08 02:33:02;;;;;;;3.80;1.40;;;;;;;0.77;81.41;98550.16;104017;277;38906;-74
2023/03/08 02:35:37;;;;;;;2.60;1.30;;;;;;;0.76;81.45;98557.73;104049;277;38279;-74
2023/03/08 02:38:11;;;;;;;3.30;1.50;;;;;;;0.74;81.62;98556.95;104035;277;38229;-73
2023/03/08 02:40:46;;;;;;;3.60;1.40;;;;;;;0.73;81.40;98557.30;104002;277;38758;-74
2023/03/08 02:43:20;;;;;;;3.10;1.40;;;;;;;0.74;81.49;98557.95;104008;277;38782;-74
2023/03/08 02:45:53;;;;;;;2.90;1.80;;;;;;;0.76;81.66;98565.45;103818;278;38638;-73
2023/03/08 02:48:27;;;;;;;4.40;1.40;;;;;;;0.75;81.71;98563.42;104000;277;38513;-71
2023/03/08 02:51:01;;;;;;;2.80;1.20;;;;;;;0.73;81.63;98562.98;103998;277;39399;-73
2023/03/08 02:53:35;;;;;;;3.00;1.30;;;;;;;0.69;81.77;98570.46;103994;276;38513;-72
2023/03/08 02:56:10;;;;;;;2.10;1.10;;;;;;;0.69;81.76;98571.15;103995;277;38355;-72
2023/03/08 02:58:46;;;;;;;1.80;1.10;;;;;;;0.71;81.78;98575.39;104050;277;39566;-73
2023/03/08 03:01:21;;;;;;;2.80;1.30;;;;;;;0.75;81.98;98582.84;104017;276;38307;-72
2023/03/08 03:03:57;;;;;;;3.00;1.10;;;;;;;0.78;82.05;98582.56;104010;277;38264;-72
2023/03/08 03:06:30;;;;;;;7.00;2.00;;;;;;;0.78;81.79;98583.08;103839;276;39431;-73
2023/03/08 03:09:07;;;;;;;3.20;1.20;;;;;;;0.79;82.09;98584.26;103845;278;38358;-73
2023/03/08 03:11:43;;;;;;;1.00;0.90;;;;;;;0.80;82.18;98587.84;104022;277;38346;-73
2023/03/08 03:14:17;;;;;;;1.30;1.10;;;;;;;0.78;82.03;98588.05;103966;276;38543;-74
2023/03/08 03:16:51;;;;;;;1.80;1.30;;;;;;;0.75;82.10;98586.25;103801;278;38592;-75
2023/03/08 03:19:26;;;;;;;2.20;1.30;;;;;;;0.73;82.09;98592.81;103994;276;38515;-75
2023/03/08 03:22:00;;;;;;;2.00;1.40;;;;;;;0.76;82.19;98596.87;103975;277;38696;-71
2023/03/08 03:24:34;;;;;;;2.30;1.60;;;;;;;0.77;82.20;98605.42;103983;277;40208;-72
2023/03/08 03:27:08;;;;;;;2.00;1.80;;;;;;;0.76;82.20;98604.23;104000;277;37954;-71
2023/03/08 03:29:42;;;;;;;3.30;1.90;;;;;;;0.76;82.25;98607.16;104021;277;38848;-71
2023/03/08 03:32:16;;;;;;;4.10;2.10;;;;;;;0.77;82.28;98606.45;104000;277;38556;-71
2023/03/08 03:34:50;;;;;;;3.10;1.60;;;;;;;0.79;82.30;98610.86;104025;277;38269;-73
2023/03/08 03:37:24;;;;;;;2.90;2.40;;;;;;;0.81;82.33;98618.02;104019;277;39460;-73
2023/03/08 03:39:58;;;;;;;3.10;2.20;;;;;;;0.82;82.47;98614.38;103961;277;173177;-74
2023/03/08 03:42:32;;;;;;;3.60;2.40;;;;;;;0.82;82.41;98609.92;103990;277;39408;-73
2023/03/08 03:45:09;;;;;;;4.60;2.90;;;;;;;0.80;82.39;98619.25;104015;277;38461;-72
2023/03/08 03:47:46;;;;;;;4.50;2.40;;;;;;;0.80;82.49;98623.21;103795;278;38240;-72
2023/03/08 03:50:21;;;;;;;3.00;2.10;;;;;;;0.82;82.52;98625.73;103905;277;175898;-72
2023/03/08 03:52:56;;;;;;;3.90;2.30;;;;;;;0.84;82.53;98628.77;103803;278;39597;-73
2023/03/08 03:55:31;;;;;;;4.40;2.50;;;;;;;0.84;82.47;98633.03;104049;277;40074;-73
2023/03/08 03:58:05;;;;;;;3.80;2.80;;;;;;;0.85;82.71;98630.64;103998;277;39534;-73
2023/03/08 04:00:39;;;;;;;6.20;3.40;;;;;;;0.87;82.65;98636.92;104010;277;39054;-72
2023/03/08 04:03:13;;;;;;;5.50;3.50;;;;;;;0.87;82.77;98642.41;104033;277;38180;-73
2023/03/08 04:05:47;;;;;;;4.40;3.20;;;;;;;0.85;82.76;98642.11;104037;277;38696;-73
2023/03/08 04:08:21;;;;;;;9.30;4.70;;;;;;;0.85;82.69;98647.61;103993;277;39682;-72
2023/03/08 04:10:59;;;;;;;4.00;3.30;;;;;;;0.88;82.77;98644.27;104037;276;38285;-72
2023/03/08 04:13:33;;;;;;;4.80;3.70;;;;;;;0.89;82.92;98644.41;103807;278;38345;-72
2023/03/08 04:16:14;;;;;;;4.70;4.10;;;;;;;0.91;82.99;98643.15;104010;277;38536;-73
2023/03/08 04:18:48;;;;;;;5.00;4.50;;;;;;;0.88;82.93;98638.09;104014;277;38240;-72
2023/03/08 04:21:22;;;;;;;6.00;4.70;;;;;;;0.86;83.03;98639.52;104058;277;38273;-73
2023/03/08 04:23:56;;;;;;;6.30;5.10;;;;;;;0.85;83.03;98631.48;103984;277;38280;-74
2023/03/08 04:26:31;;;;;;;7.80;5.10;;;;;;;0.83;83.08;98635.30;103990;277;39083;-70
2023/03/08 04:29:06;;;;;;;5.90;4.80;;;;;;;0.82;83.07;98637.23;103892;277;173202;-72
2023/03/08 04:31:40;;;;;;;6.20;5.50;;;;;;;0.81;83.12;98637.76;104068;277;38241;-70
2023/03/08 04:34:14;;;;;;;6.90;6.20;;;;;;;0.79;83.13;98642.29;104064;277;39581;-72
2023/03/08 04:36:49;;;;;;;8.00;6.50;;;;;;;0.76;83.24;98647.67;103912;277;175903;-73
2023/03/08 04:39:23;;;;;;;9.30;5.80;;;;;;;0.74;83.27;98648.77;104025;277;39622;-73
2023/03/08 04:41:57;;;;;;;7.10;5.30;;;;;;;0.76;83.29;98655.05;104096;277;38244;-72
2023/03/08 04:44:31;;;;;;;7.10;6.40;;;;;;;0.79;83.40;98665.62;104017;277;38379;-71
2023/03/08 04:47:05;;;;;;;7.40;6.60;;;;;;;0.82;83.43;98670.85;103821;277;38450;-73
2023/03/08 04:49:39;;;;;;;8.70;7.00;;;;;;;0.85;83.51;98672.85;104070;277;38407;-71
2023/03/08 04:52:12;;;;;;;8.00;7.00;;;;;;;0.88;83.58;98670.88;103909;277;175893;-75
2023/03/08 04:54:46;;;;;;;10.50;7.90;;;;;;;0.89;83.66;98674.80;104027;277;38418;-74
2023/03/08 04:57:20;;;;;;;8.50;6.80;;;;;;;0.90;83.47;98675.98;103912;277;173165;-74
2023/03/08 04:59:54;;;;;;;9.30;6.80;;;;;;;0.90;83.43;98679.08;103878;277;175894;-71
2023/03/08 05:02:28;;;;;;;9.00;7.40;;;;;;;0.91;83.41;98678.00;104013;277;39270;-71
2023/03/08 05:05:03;;;;;;;7.70;6.90;;;;;;;0.93;83.42;98681.57;103962;277;38547;-70
2023/03/08 05:07:37;;;;;;;8.90;7.20;;;;;;;0.95;83.59;98685.11;104034;277;39686;-71
2023/03/08 05:10:13;;;;;;;11.70;7.60;;;;;;;0.96;83.56;98688.34;103991;277;39563;-70
2023/03/08 05:12:47;;;;;;;9.20;7.90;;;;;;;0.94;83.51;98688.73;104037;277;38594;-72
2023/03/08 05:15:22;;;;;;;11.30;8.40;;;;;;;0.94;83.52;98687.39;104062;277;38489;-73
2023/03/08 05:17:57;;;;;;;8.70;7.40;;;;;;;0.95;83.37;98696.79;104050;277;38385;-72
2023/03/08 05:20:31;;;;;;;8.60;7.70;;;;;;;0.95;83.38;98700.75;104019;277;38286;-71
2023/03/08 05:23:06;;;;;;;8.60;7.40;;;;;;;0.94;83.19;98700.24;104019;277;38459;-72
2023/03/08 05:25:44;;;;;;;11.50;8.50;;;;;;;0.92;83.12;98701.32;104005;277;39435;-72
2023/03/08 05:28:18;;;;;;;9.80;8.20;;;;;;;0.88;83.06;98705.21;103997;277;37933;-71
2023/03/08 05:30:57;;;;;;;9.00;8.00;;;;;;;0.82;83.09;98705.55;104035;276;38539;-71
2023/03/08 05:33:31;;;;;;;10.50;7.90;;;;;;;0.79;83.10;98707.49;103599;277;396414;-73
2023/03/08 05:36:06;;;;;;;8.70;7.40;;;;;;;0.79;83.10;98709.23;103966;277;38712;-71
2023/03/08 05:38:40;;;;;;;10.00;8.30;;;;;;;0.77;83.05;98720.77;103791;277;40170;-71
2023/03/08 05:41:16;;;;;;;10.20;8.70;;;;;;;0.77;83.26;98725.58;104002;277;39414;-72
2023/03/08 05:43:50;;;;;;;11.40;8.70;;;;;;;0.79;83.21;98724.67;104020;277;38739;-75
2023/03/08 05:46:24;;;;;;;10.00;8.20;;;;;;;0.77;83.09;98728.83;104017;277;39628;-72
2023/03/08 05:48:58;;;;;;;10.20;8.60;;;;;;;0.77;83.14;98734.65;103975;277;39336;-71
2023/03/08 05:51:32;;;;;;;8.40;7.50;;;;;;;0.78;82.96;98740.29;104047;277;38482;-71
2023/03/08 05:54:06;;;;;;;9.20;8.20;;;;;;;0.82;83.06;98739.52;104014;277;38748;-73
2023/03/08 05:56:40;;;;;;;10.10;8.40;;;;;;;0.83;82.96;98743.11;104044;277;38991;-72
2023/03/08 05:59:14;;;;;;;11.30;8.70;;;;;;;0.84;83.04;98749.77;104021;277;39533;-72
2023/03/08 06:01:48;;;;;;;10.20;8.30;;;;;;;0.82;82.87;98753.25;104051;277;38920;-72
2023/03/08 06:04:21;;;;;;;8.20;7.40;;;;;;;0.82;82.81;98755.31;104023;277;38246;-72
